sensor_id;sensor_type;location;lat;lon;timestamp;P1;durP1;ratioP1;P2;durP2;ratioP2
26375;SDS011;30544;42.196;24.336;2023-04-06T00:00:33;21.20;;;16.00;;
26375;SDS011;30544;42.196;24.336;2023-04-06T00:03:00;21.63;;;15.52;;
26375;SDS011;30544;42.196;24.336;2023-04-06T00:05:27;20.08;;;14.88;;
26375;SDS011;30544;42.196;24.336;2023-04-06T00:07:55;18.90;;;14.25;;
26375;SDS011;30544;42.196;24.336;2023-04-06T00:10:23;18.58;;;13.80;;
26375;SDS011;30544;42.196;24.336;2023-04-06T00:12:51;17.38;;;13.15;;
26375;SDS011;30544;42.196;24.336;2023-04-06T00:15:19;16.42;;;13.00;;
26375;SDS011;30544;42.196;24.336;2023-04-06T00:17:46;18.67;;;13.57;;
26375;SDS011;30544;42.196;24.336;2023-04-06T00:20:13;17.90;;;14.05;;
26375;SDS011;30544;42.196;24.336;2023-04-06T00:22:40;18.42;;;13.95;;
26375;SDS011;30544;42.196;24.336;2023-04-06T00:25:07;19.05;;;14.93;;
26375;SDS011;30544;42.196;24.336;2023-04-06T00:27:35;19.58;;;13.98;;
26375;SDS011;30544;42.196;24.336;2023-04-06T00:30:03;20.45;;;15.40;;
26375;SDS011;30544;42.196;24.336;2023-04-06T00:32:31;19.83;;;14.77;;
26375;SDS011;30544;42.196;24.336;2023-04-06T00:34:57;20.80;;;15.32;;
26375;SDS011;30544;42.196;24.336;2023-04-06T00:37:24;20.50;;;14.38;;
26375;SDS011;30544;42.196;24.336;2023-04-06T00:39:51;19.08;;;14.70;;
26375;SDS011;30544;42.196;24.336;2023-04-06T00:42:18;20.33;;;14.25;;
26375;SDS011;30544;42.196;24.336;2023-04-06T00:44:50;18.02;;;14.82;;
26375;SDS011;30544;42.196;24.336;2023-04-06T00:47:20;22.02;;;14.57;;
26375;SDS011;30544;42.196;24.336;2023-04-06T00:49:47;19.30;;;14.43;;
26375;SDS011;30544;42.196;24.336;2023-04-06T00:52:15;19.15;;;14.00;;
26375;SDS011;30544;42.196;24.336;2023-04-06T00:54:42;20.33;;;15.45;;
26375;SDS011;30544;42.196;24.336;2023-04-06T00:57:09;19.02;;;14.43;;
26375;SDS011;30544;42.196;24.336;2023-04-06T00:59:36;22.63;;;15.00;;
26375;SDS011;30544;42.196;24.336;2023-04-06T01:02:03;18.58;;;14.30;;
26375;SDS011;30544;42.196;24.336;2023-04-06T01:04:32;21.15;;;15.45;;
26375;SDS011;30544;42.196;24.336;2023-04-06T01:07:00;20.15;;;15.15;;
26375;SDS011;30544;42.196;24.336;2023-04-06T01:09:27;21.67;;;15.73;;
26375;SDS011;30544;42.196;24.336;2023-04-06T01:11:54;22.40;;;16.05;;
26375;SDS011;30544;42.196;24.336;2023-04-06T01:14:21;19.73;;;15.63;;
26375;SDS011;30544;42.196;24.336;2023-04-06T01:16:48;25.85;;;16.27;;
26375;SDS011;30544;42.196;24.336;2023-04-06T01:19:16;23.25;;;15.90;;
26375;SDS011;30544;42.196;24.336;2023-04-06T01:21:44;23.67;;;15.85;;
26375;SDS011;30544;42.196;24.336;2023-04-06T01:24:12;22.67;;;15.77;;
26375;SDS011;30544;42.196;24.336;2023-04-06T01:26:39;21.98;;;16.63;;
26375;SDS011;30544;42.196;24.336;2023-04-06T01:29:06;21.80;;;16.70;;
26375;SDS011;30544;42.196;24.336;2023-04-06T01:31:33;24.20;;;17.17;;
26375;SDS011;30544;42.196;24.336;2023-04-06T01:34:00;25.85;;;18.00;;
26375;SDS011;30544;42.196;24.336;2023-04-06T01:36:27;25.02;;;18.08;;
26375;SDS011;30544;42.196;24.336;2023-04-06T01:38:54;26.90;;;17.52;;
26375;SDS011;30544;42.196;24.336;2023-04-06T01:41:22;26.42;;;17.42;;
26375;SDS011;30544;42.196;24.336;2023-04-06T01:43:49;26.85;;;18.25;;
26375;SDS011;30544;42.196;24.336;2023-04-06T01:46:19;23.30;;;17.55;;
26375;SDS011;30544;42.196;24.336;2023-04-06T01:48:46;25.92;;;18.15;;
26375;SDS011;30544;42.196;24.336;2023-04-06T01:51:13;28.05;;;18.65;;
26375;SDS011;30544;42.196;24.336;2023-04-06T01:53:40;26.65;;;18.85;;
26375;SDS011;30544;42.196;24.336;2023-04-06T01:56:07;22.35;;;17.50;;
26375;SDS011;30544;42.196;24.336;2023-04-06T01:58:35;27.45;;;18.77;;
26375;SDS011;30544;42.196;24.336;2023-04-06T02:01:02;24.60;;;17.98;;
26375;SDS011;30544;42.196;24.336;2023-04-06T02:03:29;25.63;;;19.15;;
26375;SDS011;30544;42.196;24.336;2023-04-06T02:05:56;28.20;;;17.73;;
26375;SDS011;30544;42.196;24.336;2023-04-06T02:08:23;24.73;;;16.40;;
26375;SDS011;30544;42.196;24.336;2023-04-06T02:10:50;23.23;;;16.63;;
26375;SDS011;30544;42.196;24.336;2023-04-06T02:13:17;24.05;;;17.00;;
26375;SDS011;30544;42.196;24.336;2023-04-06T02:15:45;23.13;;;17.58;;
26375;SDS011;30544;42.196;24.336;2023-04-06T02:18:12;27.02;;;17.50;;
26375;SDS011;30544;42.196;24.336;2023-04-06T02:20:39;25.77;;;17.45;;
26375;SDS011;30544;42.196;24.336;2023-04-06T02:23:06;25.75;;;18.98;;
26375;SDS011;30544;42.196;24.336;2023-04-06T02:25:33;25.60;;;18.27;;
26375;SDS011;30544;42.196;24.336;2023-04-06T02:28:00;27.90;;;18.92;;
26375;SDS011;30544;42.196;24.336;2023-04-06T02:30:27;29.40;;;19.73;;
26375;SDS011;30544;42.196;24.336;2023-04-06T02:32:56;28.02;;;19.08;;
26375;SDS011;30544;42.196;24.336;2023-04-06T02:35:24;26.48;;;17.35;;
26375;SDS011;30544;42.196;24.336;2023-04-06T02:37:51;26.17;;;18.08;;
26375;SDS011;30544;42.196;24.336;2023-04-06T02:40:18;25.23;;;18.13;;
26375;SDS011;30544;42.196;24.336;2023-04-06T02:42:45;28.08;;;18.52;;
26375;SDS011;30544;42.196;24.336;2023-04-06T02:45:12;23.50;;;17.73;;
26375;SDS011;30544;42.196;24.336;2023-04-06T02:47:39;23.95;;;17.50;;
26375;SDS011;30544;42.196;24.336;2023-04-06T02:50:07;24.95;;;17.15;;
26375;SDS011;30544;42.196;24.336;2023-04-06T02:52:35;27.38;;;17.77;;
26375;SDS011;30544;42.196;24.336;2023-04-06T02:55:03;32.22;;;20.23;;
26375;SDS011;30544;42.196;24.336;2023-04-06T02:57:32;34.70;;;21.70;;
26375;SDS011;30544;42.196;24.336;2023-04-06T03:00:00;29.08;;;19.70;;
26375;SDS011;30544;42.196;24.336;2023-04-06T03:02:27;29.58;;;20.70;;
26375;SDS011;30544;42.196;24.336;2023-04-06T03:04:54;27.95;;;19.23;;
26375;SDS011;30544;42.196;24.336;2023-04-06T03:07:22;25.00;;;19.05;;
26375;SDS011;30544;42.196;24.336;2023-04-06T03:09:49;31.85;;;19.55;;
26375;SDS011;30544;42.196;24.336;2023-04-06T03:12:16;26.98;;;19.40;;
26375;SDS011;30544;42.196;24.336;2023-04-06T03:14:43;30.40;;;20.45;;
26375;SDS011;30544;42.196;24.336;2023-04-06T03:17:10;30.05;;;19.70;;
26375;SDS011;30544;42.196;24.336;2023-04-06T03:19:36;30.75;;;21.33;;
26375;SDS011;30544;42.196;24.336;2023-04-06T03:22:03;35.03;;;23.10;;
26375;SDS011;30544;42.196;24.336;2023-04-06T03:24:32;42.17;;;24.00;;
26375;SDS011;30544;42.196;24.336;2023-04-06T03:26:58;40.85;;;25.15;;
26375;SDS011;30544;42.196;24.336;2023-04-06T03:29:25;34.35;;;22.67;;
26375;SDS011;30544;42.196;24.336;2023-04-06T03:31:52;35.80;;;22.88;;
26375;SDS011;30544;42.196;24.336;2023-04-06T03:34:20;37.67;;;22.85;;
26375;SDS011;30544;42.196;24.336;2023-04-06T03:36:46;34.10;;;22.40;;
26375;SDS011;30544;42.196;24.336;2023-04-06T03:39:13;31.42;;;21.83;;
26375;SDS011;30544;42.196;24.336;2023-04-06T03:41:42;32.45;;;21.45;;
26375;SDS011;30544;42.196;24.336;2023-04-06T03:44:09;35.47;;;22.33;;
26375;SDS011;30544;42.196;24.336;2023-04-06T03:46:37;31.52;;;22.00;;
26375;SDS011;30544;42.196;24.336;2023-04-06T03:49:03;33.83;;;21.00;;
26375;SDS011;30544;42.196;24.336;2023-04-06T03:51:30;32.75;;;22.08;;
26375;SDS011;30544;42.196;24.336;2023-04-06T03:53:57;30.42;;;19.95;;
26375;SDS011;30544;42.196;24.336;2023-04-06T03:56:25;28.10;;;19.60;;
26375;SDS011;30544;42.196;24.336;2023-04-06T03:58:53;30.42;;;20.58;;
26375;SDS011;30544;42.196;24.336;2023-04-06T04:01:20;37.47;;;21.95;;
26375;SDS011;30544;42.196;24.336;2023-04-06T04:03:47;30.38;;;21.17;;
26375;SDS011;30544;42.196;24.336;2023-04-06T04:06:14;30.52;;;21.05;;
26375;SDS011;30544;42.196;24.336;2023-04-06T04:08:41;31.17;;;21.08;;
26375;SDS011;30544;42.196;24.336;2023-04-06T04:11:08;32.83;;;21.50;;
26375;SDS011;30544;42.196;24.336;2023-04-06T04:13:35;33.08;;;20.27;;
26375;SDS011;30544;42.196;24.336;2023-04-06T04:16:03;33.45;;;20.70;;
26375;SDS011;30544;42.196;24.336;2023-04-06T04:18:30;31.35;;;20.88;;
26375;SDS011;30544;42.196;24.336;2023-04-06T04:20:57;34.20;;;21.08;;
26375;SDS011;30544;42.196;24.336;2023-04-06T04:23:24;33.63;;;20.77;;
26375;SDS011;30544;42.196;24.336;2023-04-06T04:25:51;30.77;;;21.13;;
26375;SDS011;30544;42.196;24.336;2023-04-06T04:28:17;37.42;;;23.20;;
26375;SDS011;30544;42.196;24.336;2023-04-06T04:30:44;40.13;;;22.60;;
26375;SDS011;30544;42.196;24.336;2023-04-06T04:33:13;38.08;;;22.88;;
26375;SDS011;30544;42.196;24.336;2023-04-06T04:35:40;32.47;;;21.15;;
26375;SDS011;30544;42.196;24.336;2023-04-06T04:38:07;29.25;;;20.30;;
26375;SDS011;30544;42.196;24.336;2023-04-06T04:40:34;32.00;;;20.92;;
26375;SDS011;30544;42.196;24.336;2023-04-06T04:43:01;31.27;;;20.05;;
26375;SDS011;30544;42.196;24.336;2023-04-06T04:45:28;27.50;;;18.58;;
26375;SDS011;30544;42.196;24.336;2023-04-06T04:47:55;25.63;;;17.17;;
26375;SDS011;30544;42.196;24.336;2023-04-06T04:50:23;26.55;;;17.67;;
26375;SDS011;30544;42.196;24.336;2023-04-06T04:52:50;31.85;;;17.45;;
26375;SDS011;30544;42.196;24.336;2023-04-06T04:55:17;28.85;;;18.85;;
26375;SDS011;30544;42.196;24.336;2023-04-06T04:57:44;26.80;;;18.30;;
26375;SDS011;30544;42.196;24.336;2023-04-06T05:00:11;29.85;;;19.13;;
26375;SDS011;30544;42.196;24.336;2023-04-06T05:02:39;39.17;;;20.98;;
26375;SDS011;30544;42.196;24.336;2023-04-06T05:05:06;35.55;;;20.67;;
26375;SDS011;30544;42.196;24.336;2023-04-06T05:07:35;28.23;;;19.65;;
26375;SDS011;30544;42.196;24.336;2023-04-06T05:10:02;28.88;;;19.42;;
26375;SDS011;30544;42.196;24.336;2023-04-06T05:12:29;24.98;;;17.73;;
26375;SDS011;30544;42.196;24.336;2023-04-06T05:14:56;22.60;;;16.13;;
26375;SDS011;30544;42.196;24.336;2023-04-06T05:17:23;22.35;;;16.38;;
26375;SDS011;30544;42.196;24.336;2023-04-06T05:19:50;25.52;;;16.80;;
26375;SDS011;30544;42.196;24.336;2023-04-06T05:22:17;22.75;;;16.65;;
26375;SDS011;30544;42.196;24.336;2023-04-06T05:24:46;28.80;;;16.23;;
26375;SDS011;30544;42.196;24.336;2023-04-06T05:27:13;22.88;;;16.55;;
26375;SDS011;30544;42.196;24.336;2023-04-06T05:29:40;24.88;;;17.42;;
26375;SDS011;30544;42.196;24.336;2023-04-06T05:32:07;24.88;;;16.63;;
26375;SDS011;30544;42.196;24.336;2023-04-06T05:34:34;27.83;;;15.15;;
26375;SDS011;30544;42.196;24.336;2023-04-06T05:37:01;25.17;;;15.82;;
26375;SDS011;30544;42.196;24.336;2023-04-06T05:39:30;26.77;;;16.38;;
26375;SDS011;30544;42.196;24.336;2023-04-06T05:42:01;28.25;;;16.40;;
26375;SDS011;30544;42.196;24.336;2023-04-06T05:44:29;21.45;;;14.65;;
26375;SDS011;30544;42.196;24.336;2023-04-06T05:46:57;25.95;;;16.20;;
26375;SDS011;30544;42.196;24.336;2023-04-06T05:49:23;23.30;;;14.90;;
26375;SDS011;30544;42.196;24.336;2023-04-06T05:51:50;33.13;;;16.02;;
26375;SDS011;30544;42.196;24.336;2023-04-06T05:54:17;20.88;;;14.50;;
26375;SDS011;30544;42.196;24.336;2023-04-06T05:56:44;21.00;;;15.18;;
26375;SDS011;30544;42.196;24.336;2023-04-06T05:59:13;20.73;;;14.95;;
26375;SDS011;30544;42.196;24.336;2023-04-06T06:01:40;22.08;;;15.48;;
26375;SDS011;30544;42.196;24.336;2023-04-06T06:04:07;26.40;;;17.13;;
26375;SDS011;30544;42.196;24.336;2023-04-06T06:06:34;25.45;;;16.83;;
26375;SDS011;30544;42.196;24.336;2023-04-06T06:09:01;24.65;;;16.33;;
26375;SDS011;30544;42.196;24.336;2023-04-06T06:11:28;20.77;;;14.48;;
26375;SDS011;30544;42.196;24.336;2023-04-06T06:13:55;24.10;;;16.27;;
26375;SDS011;30544;42.196;24.336;2023-04-06T06:16:23;23.40;;;15.93;;
26375;SDS011;30544;42.196;24.336;2023-04-06T06:18:50;29.48;;;18.58;;
26375;SDS011;30544;42.196;24.336;2023-04-06T06:21:17;22.40;;;13.82;;
26375;SDS011;30544;42.196;24.336;2023-04-06T06:23:44;18.92;;;13.20;;
26375;SDS011;30544;42.196;24.336;2023-04-06T06:26:13;18.73;;;13.15;;
26375;SDS011;30544;42.196;24.336;2023-04-06T06:28:40;17.58;;;13.32;;
26375;SDS011;30544;42.196;24.336;2023-04-06T06:31:06;18.85;;;12.40;;
26375;SDS011;30544;42.196;24.336;2023-04-06T06:33:35;16.00;;;12.20;;
26375;SDS011;30544;42.196;24.336;2023-04-06T06:36:02;20.52;;;12.13;;
26375;SDS011;30544;42.196;24.336;2023-04-06T06:38:29;18.42;;;11.70;;
26375;SDS011;30544;42.196;24.336;2023-04-06T06:40:56;19.92;;;12.45;;
26375;SDS011;30544;42.196;24.336;2023-04-06T06:43:23;17.05;;;11.27;;
26375;SDS011;30544;42.196;24.336;2023-04-06T06:45:50;17.08;;;11.25;;
26375;SDS011;30544;42.196;24.336;2023-04-06T06:48:16;17.17;;;11.70;;
26375;SDS011;30544;42.196;24.336;2023-04-06T06:50:45;19.02;;;11.57;;
26375;SDS011;30544;42.196;24.336;2023-04-06T06:53:13;18.60;;;12.73;;
26375;SDS011;30544;42.196;24.336;2023-04-06T06:55:40;19.13;;;12.50;;
26375;SDS011;30544;42.196;24.336;2023-04-06T06:58:09;19.15;;;13.45;;
26375;SDS011;30544;42.196;24.336;2023-04-06T07:00:36;22.45;;;13.40;;
26375;SDS011;30544;42.196;24.336;2023-04-06T07:03:03;13.00;;;9.90;;
26375;SDS011;30544;42.196;24.336;2023-04-06T07:05:30;12.43;;;9.35;;
26375;SDS011;30544;42.196;24.336;2023-04-06T07:07:58;13.48;;;9.52;;
26375;SDS011;30544;42.196;24.336;2023-04-06T07:10:25;14.70;;;10.02;;
26375;SDS011;30544;42.196;24.336;2023-04-06T07:12:52;15.10;;;10.75;;
26375;SDS011;30544;42.196;24.336;2023-04-06T07:15:19;14.57;;;10.43;;
26375;SDS011;30544;42.196;24.336;2023-04-06T07:17:46;15.85;;;11.40;;
26375;SDS011;30544;42.196;24.336;2023-04-06T07:20:13;26.75;;;15.27;;
26375;SDS011;30544;42.196;24.336;2023-04-06T07:22:42;15.52;;;9.38;;
26375;SDS011;30544;42.196;24.336;2023-04-06T07:25:11;138.25;;;41.55;;
26375;SDS011;30544;42.196;24.336;2023-04-06T07:27:38;102.00;;;39.63;;
26375;SDS011;30544;42.196;24.336;2023-04-06T07:30:05;33.03;;;15.70;;
26375;SDS011;30544;42.196;24.336;2023-04-06T07:32:33;38.97;;;18.10;;
26375;SDS011;30544;42.196;24.336;2023-04-06T07:35:01;76.88;;;34.45;;
26375;SDS011;30544;42.196;24.336;2023-04-06T07:37:28;13.38;;;9.90;;
26375;SDS011;30544;42.196;24.336;2023-04-06T07:39:54;13.30;;;9.23;;
26375;SDS011;30544;42.196;24.336;2023-04-06T07:42:23;12.90;;;9.43;;
26375;SDS011;30544;42.196;24.336;2023-04-06T07:44:49;12.23;;;8.70;;
26375;SDS011;30544;42.196;24.336;2023-04-06T07:47:16;20.77;;;11.68;;
26375;SDS011;30544;42.196;24.336;2023-04-06T07:49:43;14.63;;;10.35;;
26375;SDS011;30544;42.196;24.336;2023-04-06T07:52:10;17.45;;;9.65;;
26375;SDS011;30544;42.196;24.336;2023-04-06T07:54:37;14.63;;;9.43;;
26375;SDS011;30544;42.196;24.336;2023-04-06T07:57:04;13.80;;;9.63;;
26375;SDS011;30544;42.196;24.336;2023-04-06T07:59:32;16.65;;;9.68;;
26375;SDS011;30544;42.196;24.336;2023-04-06T08:01:59;14.13;;;9.65;;
26375;SDS011;30544;42.196;24.336;2023-04-06T08:04:27;11.98;;;9.02;;
26375;SDS011;30544;42.196;24.336;2023-04-06T08:06:54;16.73;;;9.80;;
26375;SDS011;30544;42.196;24.336;2023-04-06T08:09:21;22.00;;;11.63;;
26375;SDS011;30544;42.196;24.336;2023-04-06T08:11:48;13.98;;;9.52;;
26375;SDS011;30544;42.196;24.336;2023-04-06T08:14:15;27.40;;;13.95;;
26375;SDS011;30544;42.196;24.336;2023-04-06T08:16:43;19.85;;;10.15;;
26375;SDS011;30544;42.196;24.336;2023-04-06T08:19:10;14.48;;;9.85;;
26375;SDS011;30544;42.196;24.336;2023-04-06T08:21:37;12.35;;;8.80;;
26375;SDS011;30544;42.196;24.336;2023-04-06T08:24:04;10.13;;;8.15;;
26375;SDS011;30544;42.196;24.336;2023-04-06T08:26:32;13.32;;;8.65;;
26375;SDS011;30544;42.196;24.336;2023-04-06T08:28:59;11.88;;;9.25;;
26375;SDS011;30544;42.196;24.336;2023-04-06T08:31:25;11.77;;;8.30;;
26375;SDS011;30544;42.196;24.336;2023-04-06T08:33:54;10.85;;;8.20;;
26375;SDS011;30544;42.196;24.336;2023-04-06T08:36:21;9.40;;;7.25;;
26375;SDS011;30544;42.196;24.336;2023-04-06T08:38:48;11.90;;;8.18;;
26375;SDS011;30544;42.196;24.336;2023-04-06T08:41:15;17.42;;;9.60;;
26375;SDS011;30544;42.196;24.336;2023-04-06T08:43:43;12.80;;;8.02;;
26375;SDS011;30544;42.196;24.336;2023-04-06T08:46:13;12.50;;;7.80;;
26375;SDS011;30544;42.196;24.336;2023-04-06T08:48:41;12.15;;;8.15;;
26375;SDS011;30544;42.196;24.336;2023-04-06T08:51:11;12.52;;;7.60;;
26375;SDS011;30544;42.196;24.336;2023-04-06T08:53:38;11.07;;;8.35;;
26375;SDS011;30544;42.196;24.336;2023-04-06T08:56:05;11.73;;;7.90;;
26375;SDS011;30544;42.196;24.336;2023-04-06T08:58:34;13.00;;;8.65;;
26375;SDS011;30544;42.196;24.336;2023-04-06T09:01:02;10.95;;;7.63;;
26375;SDS011;30544;42.196;24.336;2023-04-06T09:03:33;11.73;;;8.00;;
26375;SDS011;30544;42.196;24.336;2023-04-06T09:06:04;9.93;;;6.78;;
26375;SDS011;30544;42.196;24.336;2023-04-06T09:08:33;12.60;;;7.22;;
26375;SDS011;30544;42.196;24.336;2023-04-06T09:11:01;11.82;;;7.70;;
26375;SDS011;30544;42.196;24.336;2023-04-06T09:13:28;11.82;;;7.53;;
26375;SDS011;30544;42.196;24.336;2023-04-06T09:15:59;10.35;;;7.50;;
26375;SDS011;30544;42.196;24.336;2023-04-06T09:18:29;10.93;;;6.80;;
26375;SDS011;30544;42.196;24.336;2023-04-06T09:20:57;11.75;;;8.10;;
26375;SDS011;30544;42.196;24.336;2023-04-06T09:23:25;9.15;;;7.20;;
26375;SDS011;30544;42.196;24.336;2023-04-06T09:25:54;12.07;;;7.72;;
26375;SDS011;30544;42.196;24.336;2023-04-06T09:28:40;10.18;;;7.35;;
26375;SDS011;30544;42.196;24.336;2023-04-06T09:31:08;8.95;;;7.25;;
26375;SDS011;30544;42.196;24.336;2023-04-06T09:33:37;9.32;;;6.97;;
26375;SDS011;30544;42.196;24.336;2023-04-06T09:36:05;11.32;;;6.70;;
26375;SDS011;30544;42.196;24.336;2023-04-06T09:38:35;8.38;;;6.97;;
26375;SDS011;30544;42.196;24.336;2023-04-06T09:41:04;9.15;;;6.80;;
26375;SDS011;30544;42.196;24.336;2023-04-06T09:43:31;9.18;;;6.70;;
26375;SDS011;30544;42.196;24.336;2023-04-06T09:45:59;8.68;;;6.68;;
26375;SDS011;30544;42.196;24.336;2023-04-06T09:48:28;12.15;;;7.88;;
26375;SDS011;30544;42.196;24.336;2023-04-06T09:50:59;15.35;;;8.05;;
26375;SDS011;30544;42.196;24.336;2023-04-06T09:53:30;11.25;;;8.10;;
26375;SDS011;30544;42.196;24.336;2023-04-06T09:56:03;9.88;;;7.80;;
26375;SDS011;30544;42.196;24.336;2023-04-06T09:58:38;11.60;;;7.72;;
26375;SDS011;30544;42.196;24.336;2023-04-06T10:01:09;10.70;;;8.13;;
26375;SDS011;30544;42.196;24.336;2023-04-06T10:03:44;12.27;;;8.20;;
26375;SDS011;30544;42.196;24.336;2023-04-06T10:06:14;12.77;;;8.05;;
26375;SDS011;30544;42.196;24.336;2023-04-06T10:08:42;11.45;;;7.90;;
26375;SDS011;30544;42.196;24.336;2023-04-06T10:11:15;9.85;;;7.88;;
26375;SDS011;30544;42.196;24.336;2023-04-06T10:13:42;10.18;;;7.90;;
26375;SDS011;30544;42.196;24.336;2023-04-06T10:16:10;9.75;;;7.82;;
26375;SDS011;30544;42.196;24.336;2023-04-06T10:18:39;12.82;;;8.68;;
26375;SDS011;30544;42.196;24.336;2023-04-06T10:21:11;22.85;;;12.93;;
26375;SDS011;30544;42.196;24.336;2023-04-06T10:23:41;75.22;;;31.60;;
26375;SDS011;30544;42.196;24.336;2023-04-06T10:26:12;74.55;;;30.50;;
26375;SDS011;30544;42.196;24.336;2023-04-06T10:28:42;28.30;;;14.05;;
26375;SDS011;30544;42.196;24.336;2023-04-06T10:31:11;18.73;;;11.60;;
26375;SDS011;30544;42.196;24.336;2023-04-06T10:33:38;9.93;;;7.75;;
26375;SDS011;30544;42.196;24.336;2023-04-06T10:36:12;10.38;;;7.60;;
26375;SDS011;30544;42.196;24.336;2023-04-06T10:38:40;12.32;;;8.48;;
26375;SDS011;30544;42.196;24.336;2023-04-06T10:41:08;9.73;;;7.82;;
26375;SDS011;30544;42.196;24.336;2023-04-06T10:43:37;10.27;;;8.20;;
26375;SDS011;30544;42.196;24.336;2023-04-06T10:46:06;14.75;;;9.02;;
26375;SDS011;30544;42.196;24.336;2023-04-06T10:48:37;12.32;;;8.50;;
26375;SDS011;30544;42.196;24.336;2023-04-06T10:51:07;11.65;;;8.55;;
26375;SDS011;30544;42.196;24.336;2023-04-06T10:53:35;16.83;;;10.02;;
26375;SDS011;30544;42.196;24.336;2023-04-06T10:56:02;14.05;;;10.13;;
26375;SDS011;30544;42.196;24.336;2023-04-06T10:58:37;14.68;;;9.35;;
26375;SDS011;30544;42.196;24.336;2023-04-06T11:01:05;12.60;;;9.82;;
26375;SDS011;30544;42.196;24.336;2023-04-06T11:03:31;17.42;;;10.10;;
26375;SDS011;30544;42.196;24.336;2023-04-06T11:06:09;17.42;;;11.13;;
26375;SDS011;30544;42.196;24.336;2023-04-06T11:08:36;12.30;;;8.98;;
26375;SDS011;30544;42.196;24.336;2023-04-06T11:11:05;11.65;;;8.82;;
26375;SDS011;30544;42.196;24.336;2023-04-06T11:13:38;14.50;;;10.93;;
26375;SDS011;30544;42.196;24.336;2023-04-06T11:16:07;11.52;;;8.82;;
26375;SDS011;30544;42.196;24.336;2023-04-06T11:18:38;18.25;;;11.82;;
26375;SDS011;30544;42.196;24.336;2023-04-06T11:21:12;10.60;;;7.72;;
26375;SDS011;30544;42.196;24.336;2023-04-06T11:23:39;10.98;;;7.93;;
26375;SDS011;30544;42.196;24.336;2023-04-06T11:26:09;10.38;;;7.43;;
26375;SDS011;30544;42.196;24.336;2023-04-06T11:28:39;37.05;;;17.50;;
26375;SDS011;30544;42.196;24.336;2023-04-06T11:31:06;44.13;;;18.65;;
26375;SDS011;30544;42.196;24.336;2023-04-06T11:33:35;19.15;;;11.18;;
26375;SDS011;30544;42.196;24.336;2023-04-06T11:36:03;13.63;;;8.85;;
26375;SDS011;30544;42.196;24.336;2023-04-06T11:38:30;13.05;;;7.72;;
26375;SDS011;30544;42.196;24.336;2023-04-06T11:40:57;9.07;;;7.68;;
26375;SDS011;30544;42.196;24.336;2023-04-06T11:43:27;8.88;;;7.35;;
26375;SDS011;30544;42.196;24.336;2023-04-06T11:46:00;9.52;;;7.75;;
26375;SDS011;30544;42.196;24.336;2023-04-06T11:48:28;9.57;;;8.00;;
26375;SDS011;30544;42.196;24.336;2023-04-06T11:50:56;11.07;;;8.63;;
26375;SDS011;30544;42.196;24.336;2023-04-06T11:53:23;12.52;;;7.90;;
26375;SDS011;30544;42.196;24.336;2023-04-06T11:55:51;9.95;;;7.40;;
26375;SDS011;30544;42.196;24.336;2023-04-06T11:58:18;10.50;;;7.53;;
26375;SDS011;30544;42.196;24.336;2023-04-06T12:00:44;10.40;;;7.85;;
26375;SDS011;30544;42.196;24.336;2023-04-06T12:03:13;10.52;;;8.00;;
26375;SDS011;30544;42.196;24.336;2023-04-06T12:05:40;11.77;;;8.05;;
26375;SDS011;30544;42.196;24.336;2023-04-06T12:08:07;8.70;;;7.57;;
26375;SDS011;30544;42.196;24.336;2023-04-06T12:10:34;12.27;;;8.90;;
26375;SDS011;30544;42.196;24.336;2023-04-06T12:13:00;13.10;;;8.70;;
26375;SDS011;30544;42.196;24.336;2023-04-06T12:15:30;9.95;;;7.38;;
26375;SDS011;30544;42.196;24.336;2023-04-06T12:17:56;9.90;;;7.32;;
26375;SDS011;30544;42.196;24.336;2023-04-06T12:20:25;12.60;;;8.02;;
26375;SDS011;30544;42.196;24.336;2023-04-06T12:22:52;10.02;;;7.30;;
26375;SDS011;30544;42.196;24.336;2023-04-06T12:25:18;10.65;;;7.43;;
26375;SDS011;30544;42.196;24.336;2023-04-06T12:27:45;21.02;;;8.52;;
26375;SDS011;30544;42.196;24.336;2023-04-06T12:30:13;11.60;;;7.68;;
26375;SDS011;30544;42.196;24.336;2023-04-06T12:32:40;10.77;;;7.22;;
26375;SDS011;30544;42.196;24.336;2023-04-06T12:35:07;12.68;;;8.50;;
26375;SDS011;30544;42.196;24.336;2023-04-06T12:37:38;12.85;;;8.60;;
26375;SDS011;30544;42.196;24.336;2023-04-06T12:40:05;10.32;;;8.43;;
26375;SDS011;30544;42.196;24.336;2023-04-06T12:42:33;11.60;;;8.00;;
26375;SDS011;30544;42.196;24.336;2023-04-06T12:45:00;11.20;;;7.70;;
26375;SDS011;30544;42.196;24.336;2023-04-06T12:47:26;10.60;;;8.27;;
26375;SDS011;30544;42.196;24.336;2023-04-06T12:49:53;15.82;;;7.80;;
26375;SDS011;30544;42.196;24.336;2023-04-06T12:52:21;9.63;;;7.65;;
26375;SDS011;30544;42.196;24.336;2023-04-06T12:54:49;11.88;;;8.23;;
26375;SDS011;30544;42.196;24.336;2023-04-06T12:57:16;10.50;;;8.68;;
26375;SDS011;30544;42.196;24.336;2023-04-06T12:59:43;13.32;;;9.02;;
26375;SDS011;30544;42.196;24.336;2023-04-06T13:02:11;13.88;;;9.50;;
26375;SDS011;30544;42.196;24.336;2023-04-06T13:04:38;16.83;;;9.52;;
26375;SDS011;30544;42.196;24.336;2023-04-06T13:07:05;15.60;;;9.77;;
26375;SDS011;30544;42.196;24.336;2023-04-06T13:09:32;12.82;;;8.43;;
26375;SDS011;30544;42.196;24.336;2023-04-06T13:12:00;14.10;;;9.13;;
26375;SDS011;30544;42.196;24.336;2023-04-06T13:14:28;12.77;;;8.60;;
26375;SDS011;30544;42.196;24.336;2023-04-06T13:16:56;14.27;;;8.55;;
26375;SDS011;30544;42.196;24.336;2023-04-06T13:19:23;13.55;;;7.72;;
26375;SDS011;30544;42.196;24.336;2023-04-06T13:21:50;13.23;;;7.80;;
26375;SDS011;30544;42.196;24.336;2023-04-06T13:24:17;11.88;;;8.00;;
26375;SDS011;30544;42.196;24.336;2023-04-06T13:26:44;14.20;;;8.30;;
26375;SDS011;30544;42.196;24.336;2023-04-06T13:29:13;29.80;;;14.88;;
26375;SDS011;30544;42.196;24.336;2023-04-06T13:31:40;26.67;;;12.93;;
26375;SDS011;30544;42.196;24.336;2023-04-06T13:34:07;42.08;;;16.98;;
26375;SDS011;30544;42.196;24.336;2023-04-06T13:36:34;23.73;;;13.50;;
26375;SDS011;30544;42.196;24.336;2023-04-06T13:39:00;12.88;;;7.97;;
26375;SDS011;30544;42.196;24.336;2023-04-06T13:41:29;76.85;;;31.80;;
26375;SDS011;30544;42.196;24.336;2023-04-06T13:43:56;26.80;;;14.25;;
26375;SDS011;30544;42.196;24.336;2023-04-06T13:46:24;65.05;;;24.98;;
26375;SDS011;30544;42.196;24.336;2023-04-06T13:48:52;13.38;;;8.80;;
26375;SDS011;30544;42.196;24.336;2023-04-06T13:51:20;16.25;;;9.27;;
26375;SDS011;30544;42.196;24.336;2023-04-06T13:53:46;12.05;;;8.25;;
26375;SDS011;30544;42.196;24.336;2023-04-06T13:56:17;12.73;;;8.70;;
26375;SDS011;30544;42.196;24.336;2023-04-06T13:58:44;12.13;;;8.43;;
26375;SDS011;30544;42.196;24.336;2023-04-06T14:01:11;12.82;;;7.75;;
26375;SDS011;30544;42.196;24.336;2023-04-06T14:03:39;10.85;;;7.65;;
26375;SDS011;30544;42.196;24.336;2023-04-06T14:06:10;9.73;;;8.23;;
26375;SDS011;30544;42.196;24.336;2023-04-06T14:08:37;15.88;;;7.90;;
26375;SDS011;30544;42.196;24.336;2023-04-06T14:11:04;8.98;;;7.10;;
26375;SDS011;30544;42.196;24.336;2023-04-06T14:13:33;11.38;;;8.10;;
26375;SDS011;30544;42.196;24.336;2023-04-06T14:16:00;14.50;;;7.82;;
26375;SDS011;30544;42.196;24.336;2023-04-06T14:18:26;10.63;;;8.27;;